Kostroma — UGGU — position and weather

sailwx.info

Track history (hours):
 
Tides and Currents Weather Stations Pressure Air Temp Water Temp Dewpoint Dewpoint Depression Visibility Wind Speed Wind Dir Waves Ship Positions

Kostroma

Last reported at 2017-Dec-16 10:56 UTC. Time now 2017-Dec-16 11:15 UTC.
Position N 45°29' E 036°44'.

Length 141 m; draft 3.4 m.

Type: Tanker. MMSI: 273433680.

Date/timePositionNaut miles runAvg speedWind from/ knotsBaromVisibWave heightAir tempDewpointWater temp
2017-Dec-16 10:56N 45°29' E 036°44'0 0.0
2017-Dec-16 10:29N 45°29' E 036°44'0 0.0
2017-Dec-16 09:56N 45°29' E 036°44'0 0.0
2017-Dec-16 08:32N 45°29' E 036°44'0 0.0
2017-Dec-16 08:17N 45°29' E 036°44'0 0.0
2017-Dec-16 07:56N 45°29' E 036°44'0 0.0
2017-Dec-16 07:26N 45°29' E 036°44'0 0.1
2017-Dec-16 06:59N 45°29' E 036°45'0 0.0
2017-Dec-16 06:26N 45°29' E 036°45'0 0.0
2017-Dec-16 05:56N 45°29' E 036°45'0 0.0
2017-Dec-16 05:02N 45°29' E 036°44'0 0.1
2017-Dec-16 04:59N 45°29' E 036°44'0 0.0
2017-Dec-16 04:29N 45°29' E 036°45'0 0.0
2017-Dec-16 03:47N 45°29' E 036°45'0 0.0
2017-Dec-16 03:29N 45°29' E 036°45'0 0.0
2017-Dec-16 00:08N 45°29' E 036°45'0 0.0
2017-Dec-15 23:56N 45°29' E 036°45'0 0.0
2017-Dec-15 23:20N 45°29' E 036°45'0 0.0
2017-Dec-15 18:56N 45°29' E 036°45'0 0.0
2017-Dec-15 18:23N 45°29' E 036°45'0 0.0
2017-Dec-15 17:47N 45°29' E 036°45'0 0.0
2017-Dec-15 16:05N 45°29' E 036°45'0 0.0
2017-Dec-15 15:59N 45°29' E 036°45'0 0.0
2017-Dec-15 13:11N 45°29' E 036°45'0 0.0
2017-Dec-15 09:02N 45°29' E 036°45'0 0.0
2017-Dec-15 08:56N 45°29' E 036°45'0 0.0
2017-Dec-15 08:23N 45°29' E 036°45'0 0.0
2017-Dec-15 06:11N 45°29' E 036°45'0 0.1
2017-Dec-15 05:44N 45°29' E 036°45'0 0.0
2017-Dec-15 05:26N 45°29' E 036°44'0 0.0
2017-Dec-15 04:59N 45°29' E 036°45'  
2017-Dec-07 00:35N 45°27' E 036°44'1 5.1
2017-Dec-07 00:29N 45°27' E 036°44'3 5.3
2017-Dec-07 00:00N 45°24' E 036°42'2 4.9
2017-Dec-06 23:30N 45°22' E 036°41'0 0.4
2017-Dec-06 22:58N 45°22' E 036°42'0 1.0
2017-Dec-06 22:30N 45°22' E 036°41'3 5.2
2017-Dec-06 22:00N 45°25' E 036°42'  
Track history (hours):
 
Tides and Currents Weather Stations Pressure Air Temp Water Temp Dewpoint Dewpoint Depression Visibility Wind Speed Wind Dir Waves Ship Positions

Kostroma

Last reported at 2017-Dec-16 10:56 UTC. Time now 2017-Dec-16 11:15 UTC.
Position N 45°29' E 036°44'.

Length 141 m; draft 3.4 m.

Type: Tanker. MMSI: 273433680.

Date/timePositionNaut miles runAvg speedWind from/ knotsBaromVisibWave heightAir tempDewpointWater temp
2017-Dec-16 10:56N 45°29' E 036°44'0 0.0
2017-Dec-16 10:29N 45°29' E 036°44'0 0.0
2017-Dec-16 09:56N 45°29' E 036°44'0 0.0
2017-Dec-16 08:32N 45°29' E 036°44'0 0.0
2017-Dec-16 08:17N 45°29' E 036°44'0 0.0
2017-Dec-16 07:56N 45°29' E 036°44'0 0.0
2017-Dec-16 07:26N 45°29' E 036°44'0 0.1
2017-Dec-16 06:59N 45°29' E 036°45'0 0.0
2017-Dec-16 06:26N 45°29' E 036°45'0 0.0
2017-Dec-16 05:56N 45°29' E 036°45'0 0.0
2017-Dec-16 05:02N 45°29' E 036°44'0 0.1
2017-Dec-16 04:59N 45°29' E 036°44'0 0.0
2017-Dec-16 04:29N 45°29' E 036°45'0 0.0
2017-Dec-16 03:47N 45°29' E 036°45'0 0.0
2017-Dec-16 03:29N 45°29' E 036°45'0 0.0
2017-Dec-16 00:08N 45°29' E 036°45'0 0.0
2017-Dec-15 23:56N 45°29' E 036°45'0 0.0
2017-Dec-15 23:20N 45°29' E 036°45'0 0.0
2017-Dec-15 18:56N 45°29' E 036°45'0 0.0
2017-Dec-15 18:23N 45°29' E 036°45'0 0.0
2017-Dec-15 17:47N 45°29' E 036°45'0 0.0
2017-Dec-15 16:05N 45°29' E 036°45'0 0.0
2017-Dec-15 15:59N 45°29' E 036°45'0 0.0
2017-Dec-15 13:11N 45°29' E 036°45'0 0.0
2017-Dec-15 09:02N 45°29' E 036°45'0 0.0
2017-Dec-15 08:56N 45°29' E 036°45'0 0.0
2017-Dec-15 08:23N 45°29' E 036°45'0 0.0
2017-Dec-15 06:11N 45°29' E 036°45'0 0.1
2017-Dec-15 05:44N 45°29' E 036°45'0 0.0
2017-Dec-15 05:26N 45°29' E 036°44'0 0.0
2017-Dec-15 04:59N 45°29' E 036°45'  
2017-Dec-07 00:35N 45°27' E 036°44'1 5.1
2017-Dec-07 00:29N 45°27' E 036°44'3 5.3
2017-Dec-07 00:00N 45°24' E 036°42'2 4.9
2017-Dec-06 23:30N 45°22' E 036°41'0 0.4
2017-Dec-06 22:58N 45°22' E 036°42'0 1.0
2017-Dec-06 22:30N 45°22' E 036°41'3 5.2
2017-Dec-06 22:00N 45°25' E 036°42'  

Dump ship's entire track history